createdAt,value
2018-12-31T00:01:54.427Z,4.50
2018-12-31T00:04:23.441Z,3.97
2018-12-31T00:06:52.507Z,4.07
2018-12-31T00:09:21.768Z,4.37
2018-12-31T00:11:51.599Z,4.03
2018-12-31T00:14:20.847Z,3.80
2018-12-31T00:16:50.518Z,4.60
2018-12-31T00:19:19.492Z,4.00
2018-12-31T00:21:48.783Z,4.27
2018-12-31T00:24:17.810Z,4.73
2018-12-31T00:26:46.869Z,4.07
2018-12-31T00:29:16.152Z,4.40
2018-12-31T00:31:45.164Z,5.00
2018-12-31T00:34:14.213Z,5.07
2018-12-31T00:36:43.350Z,4.47
2018-12-31T00:39:12.391Z,4.27
2018-12-31T00:41:41.418Z,4.67
2018-12-31T00:44:10.488Z,4.70
2018-12-31T00:46:39.530Z,5.10
2018-12-31T00:49:08.587Z,4.13
2018-12-31T00:51:37.686Z,4.37
2018-12-31T00:54:06.809Z,4.17
2018-12-31T00:56:35.864Z,4.30
2018-12-31T00:59:06.134Z,4.53
2018-12-31T01:01:35.196Z,4.97
2018-12-31T01:04:04.243Z,3.93
2018-12-31T01:06:33.290Z,4.83
2018-12-31T01:09:02.275Z,4.87
2018-12-31T01:11:31.360Z,4.13
2018-12-31T01:14:00.357Z,3.90
2018-12-31T01:16:29.299Z,3.47
2018-12-31T01:18:58.356Z,3.93
2018-12-31T01:21:27.407Z,6.73
2018-12-31T01:23:56.405Z,8.13
2018-12-31T01:26:25.432Z,4.73
2018-12-31T01:28:54.397Z,4.93
2018-12-31T01:31:23.529Z,4.40
2018-12-31T01:33:52.678Z,4.17
2018-12-31T01:36:21.637Z,3.97
2018-12-31T01:38:50.651Z,3.97
2018-12-31T01:41:19.671Z,3.97
2018-12-31T01:43:48.663Z,3.90
2018-12-31T01:46:17.711Z,4.43
2018-12-31T01:48:47.281Z,4.40
2018-12-31T01:51:16.318Z,3.60
2018-12-31T01:53:45.414Z,4.73
2018-12-31T01:56:14.455Z,4.40
2018-12-31T01:58:43.477Z,4.30
2018-12-31T02:01:12.456Z,4.20
2018-12-31T02:03:41.455Z,4.17
2018-12-31T02:06:10.445Z,3.97
2018-12-31T02:08:39.394Z,3.87
2018-12-31T02:11:08.375Z,4.13
2018-12-31T02:13:37.370Z,4.10
2018-12-31T02:16:06.441Z,3.53
2018-12-31T02:18:35.475Z,4.90
2018-12-31T02:21:05.156Z,4.07
2018-12-31T02:23:34.337Z,4.60
2018-12-31T02:26:03.421Z,4.50
2018-12-31T02:28:32.432Z,4.67
2018-12-31T02:31:01.524Z,4.30
2018-12-31T02:33:30.618Z,3.97
2018-12-31T02:35:59.572Z,5.17
2018-12-31T02:38:28.656Z,4.90
2018-12-31T02:40:57.838Z,4.47
2018-12-31T02:43:27.018Z,4.90
2018-12-31T02:45:55.985Z,4.80
2018-12-31T02:48:25.070Z,5.93
2018-12-31T02:50:54.083Z,4.73
2018-12-31T02:53:23.215Z,5.10
2018-12-31T02:55:52.285Z,5.37
2018-12-31T02:58:21.424Z,5.93
2018-12-31T03:00:50.534Z,6.73
2018-12-31T03:03:19.544Z,5.33
2018-12-31T03:05:48.716Z,6.17
2018-12-31T03:08:17.859Z,6.23
2018-12-31T03:10:46.864Z,6.83
2018-12-31T03:13:15.866Z,7.13
2018-12-31T03:15:44.883Z,7.37
2018-12-31T03:18:14.382Z,6.93
2018-12-31T03:20:43.442Z,7.10
2018-12-31T03:23:12.598Z,7.43
2018-12-31T03:25:41.618Z,6.80
2018-12-31T03:28:10.732Z,5.87
2018-12-31T03:30:39.783Z,6.70
2018-12-31T03:33:09.018Z,7.07
2018-12-31T03:35:38.090Z,5.93
2018-12-31T03:38:07.158Z,7.27
2018-12-31T03:40:36.198Z,7.03
2018-12-31T03:43:05.419Z,7.77
2018-12-31T03:45:34.437Z,7.83
2018-12-31T03:48:03.393Z,8.90
2018-12-31T03:50:32.501Z,7.67
2018-12-31T03:53:01.501Z,8.93
2018-12-31T03:55:30.691Z,8.73
2018-12-31T03:57:59.942Z,9.10
2018-12-31T04:00:28.987Z,8.90
2018-12-31T04:02:58.061Z,8.77
2018-12-31T04:05:27.072Z,9.53
2018-12-31T04:07:56.396Z,8.77
2018-12-31T04:10:25.637Z,9.37
2018-12-31T04:12:54.841Z,10.03
2018-12-31T04:15:23.980Z,10.27
2018-12-31T04:17:53.054Z,10.80
2018-12-31T04:20:22.456Z,9.40
2018-12-31T04:22:51.472Z,10.23
2018-12-31T04:25:20.526Z,10.17
2018-12-31T04:27:49.644Z,9.70
2018-12-31T04:30:18.802Z,10.97
2018-12-31T04:32:48.021Z,10.63
2018-12-31T04:35:17.116Z,11.17
2018-12-31T04:37:46.226Z,10.80
2018-12-31T04:40:15.268Z,11.40
2018-12-31T04:42:44.408Z,9.80
2018-12-31T04:45:13.649Z,10.23
2018-12-31T04:47:42.724Z,10.13
2018-12-31T04:50:11.895Z,10.87
2018-12-31T04:52:41.115Z,10.77
2018-12-31T04:55:10.275Z,11.33
2018-12-31T04:57:39.399Z,10.57
2018-12-31T05:00:08.544Z,11.43
2018-12-31T05:02:37.805Z,10.67
2018-12-31T05:05:07.061Z,11.17
2018-12-31T05:07:36.273Z,11.90
2018-12-31T05:10:05.377Z,10.80
2018-12-31T05:12:34.485Z,12.13
2018-12-31T05:15:03.643Z,10.67
2018-12-31T05:17:32.766Z,11.07
2018-12-31T05:20:01.985Z,10.33
2018-12-31T05:22:30.996Z,11.03
2018-12-31T05:25:00.046Z,11.53
2018-12-31T05:27:29.656Z,11.83
2018-12-31T05:29:58.773Z,11.57
2018-12-31T05:32:27.841Z,11.77
2018-12-31T05:34:56.857Z,11.97
2018-12-31T05:37:25.836Z,11.70
2018-12-31T05:39:54.933Z,12.23
2018-12-31T05:42:23.961Z,11.07
2018-12-31T05:44:53.781Z,12.20
2018-12-31T05:47:22.840Z,12.00
2018-12-31T05:49:51.915Z,13.57
2018-12-31T05:52:20.972Z,11.50
2018-12-31T05:54:50.019Z,13.33
2018-12-31T05:57:19.117Z,12.57
2018-12-31T05:59:48.193Z,13.37
2018-12-31T06:02:17.357Z,13.03
2018-12-31T06:04:46.608Z,13.70
2018-12-31T06:07:15.643Z,12.70
2018-12-31T06:09:44.717Z,13.27
2018-12-31T06:12:14.466Z,13.27
2018-12-31T06:14:43.518Z,13.67
2018-12-31T06:17:12.942Z,12.60
2018-12-31T06:19:42.036Z,12.47
2018-12-31T06:22:11.272Z,13.37
2018-12-31T06:24:40.334Z,13.03
2018-12-31T06:27:09.498Z,12.87
2018-12-31T06:29:38.536Z,13.17
2018-12-31T06:32:07.514Z,13.13
2018-12-31T06:34:36.568Z,13.30
2018-12-31T06:37:05.557Z,12.93
2018-12-31T06:39:34.634Z,12.50
2018-12-31T06:42:03.669Z,12.17
2018-12-31T06:44:32.745Z,12.57
2018-12-31T06:47:01.779Z,12.03
2018-12-31T06:49:31.101Z,13.00
2018-12-31T06:52:00.215Z,12.73
2018-12-31T06:54:29.236Z,12.70
2018-12-31T06:56:58.213Z,12.27
2018-12-31T06:59:27.281Z,11.13
2018-12-31T07:01:56.259Z,12.07
2018-12-31T07:04:25.253Z,11.37
2018-12-31T07:06:54.289Z,12.50
2018-12-31T07:09:23.365Z,11.70
2018-12-31T07:11:52.436Z,12.63
2018-12-31T07:14:21.465Z,12.67
2018-12-31T07:16:50.667Z,12.43
2018-12-31T07:19:19.799Z,12.23
2018-12-31T07:21:48.773Z,11.97
2018-12-31T07:24:17.912Z,12.53
2018-12-31T07:26:48.085Z,11.27
2018-12-31T07:29:17.134Z,11.60
2018-12-31T07:31:46.168Z,11.37
2018-12-31T07:34:15.318Z,11.33
2018-12-31T07:36:44.852Z,12.67
2018-12-31T07:39:13.974Z,11.40
2018-12-31T07:41:43.062Z,12.67
2018-12-31T07:44:12.012Z,20.00
2018-12-31T07:46:41.042Z,14.37
2018-12-31T07:49:10.123Z,12.73
2018-12-31T07:51:39.127Z,12.17
2018-12-31T07:54:08.258Z,12.10
2018-12-31T07:56:37.475Z,11.90
2018-12-31T07:59:06.986Z,12.87
2018-12-31T08:01:36.126Z,12.07
2018-12-31T08:04:05.287Z,12.97
2018-12-31T08:06:34.416Z,11.73
2018-12-31T08:09:03.842Z,12.80
2018-12-31T08:11:32.981Z,13.47
2018-12-31T08:14:02.081Z,10.90
2018-12-31T08:16:31.181Z,13.03
2018-12-31T08:19:00.239Z,11.97
2018-12-31T08:21:29.504Z,13.67
2018-12-31T08:23:58.661Z,12.13
2018-12-31T08:26:27.701Z,13.07
2018-12-31T08:28:56.749Z,12.10
2018-12-31T08:31:25.792Z,10.47
2018-12-31T08:33:54.851Z,10.40
2018-12-31T08:36:23.943Z,9.77
2018-12-31T08:38:53.176Z,10.30
2018-12-31T08:41:22.272Z,10.00
2018-12-31T08:43:51.542Z,10.43
2018-12-31T08:46:20.699Z,10.37
2018-12-31T08:48:50.136Z,11.47
2018-12-31T08:51:19.215Z,10.93
2018-12-31T08:53:48.293Z,10.03
2018-12-31T08:56:17.436Z,10.57
2018-12-31T08:58:46.576Z,11.80
2018-12-31T09:01:15.959Z,10.77
2018-12-31T09:03:45.029Z,11.33
2018-12-31T09:06:14.404Z,10.83
2018-12-31T09:08:43.611Z,10.70
2018-12-31T09:11:12.671Z,11.13
2018-12-31T09:13:41.804Z,11.07
2018-12-31T09:16:10.945Z,11.63
2018-12-31T09:18:40.081Z,11.57
2018-12-31T09:21:09.098Z,11.13
2018-12-31T09:23:38.419Z,11.23
2018-12-31T09:26:07.451Z,12.27
2018-12-31T09:28:36.570Z,12.70
2018-12-31T09:31:07.749Z,11.33
2018-12-31T09:33:35.153Z,11.07
2018-12-31T09:36:04.389Z,11.10
2018-12-31T09:38:33.601Z,10.93
2018-12-31T09:41:02.812Z,11.53
2018-12-31T09:43:31.897Z,11.27
2018-12-31T09:46:00.977Z,10.70
2018-12-31T09:48:30.037Z,11.43
2018-12-31T09:50:59.113Z,10.93
2018-12-31T09:53:28.150Z,18.40
2018-12-31T09:55:57.190Z,11.10
2018-12-31T09:58:26.239Z,10.83
2018-12-31T10:00:55.296Z,10.93
2018-12-31T10:03:24.490Z,10.20
2018-12-31T10:05:53.611Z,11.80
2018-12-31T10:08:23.203Z,10.43
2018-12-31T10:10:52.159Z,11.33
2018-12-31T10:13:21.306Z,9.77
2018-12-31T10:15:50.402Z,10.27
2018-12-31T10:18:20.539Z,9.57
2018-12-31T10:20:49.660Z,9.20
2018-12-31T10:23:19.599Z,9.47
2018-12-31T10:25:48.717Z,9.17
2018-12-31T10:28:17.875Z,8.90
2018-12-31T10:30:47.079Z,9.53
2018-12-31T10:33:54.473Z,9.97
2018-12-31T10:36:23.497Z,8.27
2018-12-31T10:38:52.487Z,8.60
2018-12-31T10:41:21.538Z,8.87
2018-12-31T10:43:50.631Z,8.17
2018-12-31T10:46:19.685Z,8.50
2018-12-31T10:48:48.815Z,8.20
2018-12-31T10:51:17.857Z,8.23
2018-12-31T10:53:46.879Z,8.00
2018-12-31T10:56:15.926Z,9.00
2018-12-31T10:58:44.994Z,8.47
2018-12-31T11:01:14.028Z,9.63
2018-12-31T11:03:43.056Z,9.70
2018-12-31T11:06:12.092Z,9.07
2018-12-31T11:08:41.176Z,9.10
2018-12-31T11:11:10.362Z,8.40
2018-12-31T11:13:39.486Z,8.43
2018-12-31T11:16:11.366Z,7.63
2018-12-31T11:18:40.622Z,8.70
2018-12-31T11:21:09.629Z,8.50
2018-12-31T11:23:38.674Z,9.33
2018-12-31T11:26:07.887Z,8.63
2018-12-31T11:28:37.000Z,8.83
2018-12-31T11:31:07.148Z,9.10
2018-12-31T11:33:36.181Z,17.03
2018-12-31T11:36:05.197Z,9.43
2018-12-31T11:38:34.529Z,8.67
2018-12-31T11:41:05.596Z,7.63
2018-12-31T11:43:34.753Z,8.60
2018-12-31T11:46:03.865Z,9.53
2018-12-31T11:48:33.079Z,9.30
2018-12-31T11:51:02.223Z,9.57
2018-12-31T11:53:31.193Z,10.00
2018-12-31T11:56:00.620Z,8.53
2018-12-31T11:58:29.650Z,8.80
2018-12-31T12:00:58.721Z,8.30
2018-12-31T12:03:27.811Z,8.37
2018-12-31T12:05:56.855Z,8.07
2018-12-31T12:08:25.903Z,9.10
2018-12-31T12:10:55.248Z,9.90
2018-12-31T12:13:24.320Z,8.13
2018-12-31T12:15:53.308Z,8.83
2018-12-31T12:18:22.617Z,7.93
2018-12-31T12:20:51.718Z,7.77
2018-12-31T12:23:21.936Z,7.10
2018-12-31T12:25:51.011Z,7.90
2018-12-31T12:28:20.199Z,7.90
2018-12-31T12:30:49.323Z,7.77
2018-12-31T12:33:18.416Z,8.17
2018-12-31T12:35:47.985Z,6.53
2018-12-31T12:38:17.461Z,7.60
2018-12-31T12:40:46.602Z,7.77
2018-12-31T12:43:15.867Z,7.37
2018-12-31T12:45:45.861Z,8.27
2018-12-31T12:48:14.935Z,8.10
2018-12-31T12:50:44.021Z,7.87
2018-12-31T12:53:13.022Z,7.83
2018-12-31T12:55:42.060Z,8.10
2018-12-31T12:58:11.186Z,7.57
2018-12-31T13:00:40.213Z,7.30
2018-12-31T13:03:09.484Z,7.70
2018-12-31T13:05:38.526Z,7.03
2018-12-31T13:08:07.724Z,7.43
2018-12-31T13:10:36.811Z,7.77
2018-12-31T13:13:06.102Z,7.60
2018-12-31T13:15:35.238Z,6.97
2018-12-31T13:18:04.298Z,6.90
2018-12-31T13:20:33.454Z,6.73
2018-12-31T13:23:02.638Z,6.83
2018-12-31T13:25:31.696Z,7.40
2018-12-31T13:28:00.824Z,7.70
2018-12-31T13:30:30.032Z,7.60
2018-12-31T13:32:59.443Z,6.20
2018-12-31T13:35:29.298Z,6.97
2018-12-31T13:37:59.195Z,6.03
2018-12-31T13:40:29.082Z,5.77
2018-12-31T13:42:58.463Z,5.20
2018-12-31T13:45:27.693Z,5.33
2018-12-31T13:47:56.849Z,4.93
2018-12-31T13:50:25.985Z,5.10
2018-12-31T13:52:55.419Z,4.50
2018-12-31T13:55:24.446Z,4.53
2018-12-31T13:57:53.491Z,5.30
2018-12-31T14:00:22.465Z,4.57
2018-12-31T14:02:51.493Z,4.57
2018-12-31T14:05:20.681Z,4.57
2018-12-31T14:07:49.875Z,5.07
2018-12-31T14:10:25.621Z,5.37
2018-12-31T14:12:54.618Z,5.30
2018-12-31T14:15:23.911Z,5.47
2018-12-31T14:17:53.112Z,5.80
2018-12-31T14:20:22.366Z,5.13
2018-12-31T14:22:51.498Z,6.00
2018-12-31T14:25:22.000Z,6.20
2018-12-31T14:27:52.230Z,5.63
2018-12-31T14:30:21.312Z,5.87
2018-12-31T14:32:50.292Z,5.97
2018-12-31T14:35:19.904Z,6.30
2018-12-31T14:37:48.873Z,6.17
2018-12-31T14:40:17.855Z,6.10
2018-12-31T14:42:46.858Z,6.70
2018-12-31T14:45:15.953Z,6.73
2018-12-31T14:47:45.185Z,6.87
2018-12-31T14:50:14.253Z,7.37
2018-12-31T14:52:43.365Z,8.70
2018-12-31T14:55:12.375Z,9.80
2018-12-31T14:57:41.451Z,11.10
2018-12-31T15:00:12.272Z,12.63
2018-12-31T15:02:41.242Z,13.50
2018-12-31T15:05:10.274Z,14.97
2018-12-31T15:07:39.316Z,12.70
2018-12-31T15:10:09.012Z,13.30
2018-12-31T15:12:40.221Z,17.10
2018-12-31T15:15:09.407Z,15.97
2018-12-31T15:17:38.743Z,17.07
2018-12-31T15:20:09.420Z,25.63
2018-12-31T15:22:38.424Z,31.37
2018-12-31T15:25:07.502Z,19.27
2018-12-31T15:27:36.494Z,16.67
2018-12-31T15:30:08.719Z,21.57
2018-12-31T15:32:37.809Z,21.60
2018-12-31T15:35:12.676Z,21.37
2018-12-31T15:37:42.249Z,18.13
2018-12-31T15:40:11.419Z,20.07
2018-12-31T15:42:40.771Z,21.57
2018-12-31T15:45:09.751Z,22.90
2018-12-31T15:47:38.712Z,24.50
2018-12-31T15:50:08.438Z,21.17
2018-12-31T15:52:39.080Z,20.83
2018-12-31T15:55:08.769Z,19.57
2018-12-31T15:57:38.207Z,21.33
2018-12-31T16:00:09.578Z,21.47
2018-12-31T16:02:38.588Z,22.40
2018-12-31T16:05:08.895Z,24.67
2018-12-31T16:07:45.386Z,26.87
2018-12-31T16:10:08.081Z,28.47
2018-12-31T16:12:37.135Z,32.63
2018-12-31T16:15:08.011Z,30.07
2018-12-31T16:17:37.060Z,26.00
2018-12-31T16:20:06.627Z,27.87
2018-12-31T16:22:35.835Z,27.57
2018-12-31T16:25:05.311Z,25.50
2018-12-31T16:27:34.612Z,25.33
2018-12-31T16:30:04.682Z,28.70
2018-12-31T16:32:33.921Z,25.07
2018-12-31T16:35:03.296Z,27.80
2018-12-31T16:37:32.575Z,26.23
2018-12-31T16:40:02.236Z,51.07
2018-12-31T16:42:31.464Z,28.30
2018-12-31T16:45:00.750Z,26.87
2018-12-31T16:47:29.838Z,29.43
2018-12-31T16:49:58.991Z,26.83
2018-12-31T16:52:28.252Z,27.10
2018-12-31T16:54:57.309Z,27.57
2018-12-31T16:57:26.494Z,29.17
2018-12-31T16:59:55.523Z,27.47
2018-12-31T17:02:24.631Z,41.90
2018-12-31T17:04:54.112Z,29.97
2018-12-31T17:07:28.156Z,29.57
2018-12-31T17:09:52.434Z,63.77
2018-12-31T17:12:21.538Z,37.40
2018-12-31T17:14:50.498Z,39.63
2018-12-31T17:17:19.741Z,59.03
2018-12-31T17:19:48.805Z,32.33
2018-12-31T17:22:18.148Z,32.87
2018-12-31T17:24:47.144Z,28.93
2018-12-31T17:27:18.129Z,33.13
2018-12-31T17:29:46.296Z,36.47
2018-12-31T17:32:15.491Z,40.73
2018-12-31T17:34:44.564Z,41.17
2018-12-31T17:37:13.728Z,46.13
2018-12-31T17:39:42.731Z,45.73
2018-12-31T17:42:11.882Z,51.10
2018-12-31T17:44:40.940Z,58.87
2018-12-31T17:47:10.010Z,48.93
2018-12-31T17:49:39.008Z,57.03
2018-12-31T17:52:08.275Z,50.10
2018-12-31T17:54:37.430Z,56.97
2018-12-31T17:57:06.556Z,79.93
2018-12-31T17:59:35.739Z,107.43
2018-12-31T18:02:04.760Z,55.23
2018-12-31T18:04:33.821Z,53.87
2018-12-31T18:07:02.879Z,53.87
2018-12-31T18:09:32.770Z,57.83
2018-12-31T18:12:02.715Z,49.43
2018-12-31T18:14:31.913Z,55.57
2018-12-31T18:17:01.014Z,51.53
2018-12-31T18:19:30.162Z,69.70
2018-12-31T18:21:59.526Z,64.80
2018-12-31T18:24:28.508Z,67.03
2018-12-31T18:26:57.582Z,84.10
2018-12-31T18:29:26.894Z,101.43
2018-12-31T18:31:55.988Z,82.03
2018-12-31T18:34:25.220Z,73.90
2018-12-31T18:36:55.466Z,74.17
2018-12-31T18:39:24.576Z,76.37
2018-12-31T18:41:53.814Z,81.63
2018-12-31T18:44:23.199Z,96.20
2018-12-31T18:46:52.471Z,90.53
2018-12-31T18:49:21.543Z,64.37
2018-12-31T18:51:50.973Z,44.77
2018-12-31T18:54:20.101Z,48.67
2018-12-31T18:56:50.920Z,59.15
2018-12-31T18:59:20.117Z,57.58
2018-12-31T19:01:49.785Z,49.67
2018-12-31T19:04:18.948Z,51.57
2018-12-31T19:06:48.099Z,53.40
2018-12-31T19:09:17.054Z,51.87
2018-12-31T19:11:46.327Z,43.40
2018-12-31T19:14:17.961Z,161.00
2018-12-31T19:16:47.176Z,133.87
2018-12-31T19:19:16.872Z,90.20
2018-12-31T19:21:47.442Z,211.93
2018-12-31T19:24:14.858Z,87.30
2018-12-31T19:26:44.095Z,48.73
2018-12-31T19:29:13.260Z,51.83
2018-12-31T19:31:44.212Z,47.63
2018-12-31T19:34:11.750Z,53.93
2018-12-31T19:36:40.997Z,57.47
2018-12-31T19:39:10.114Z,52.30
2018-12-31T19:41:39.262Z,170.57
2018-12-31T19:44:08.383Z,78.60
2018-12-31T19:46:37.586Z,72.40
2018-12-31T19:49:06.921Z,67.57
2018-12-31T19:51:36.222Z,128.13
2018-12-31T19:54:05.485Z,109.30
2018-12-31T19:56:35.799Z,152.17
2018-12-31T19:59:05.220Z,179.07
2018-12-31T20:01:34.522Z,279.73
2018-12-31T20:04:03.919Z,214.07
2018-12-31T20:06:33.215Z,162.17
2018-12-31T20:09:02.446Z,429.30
2018-12-31T20:11:31.618Z,119.33
2018-12-31T20:14:00.805Z,147.70
2018-12-31T20:16:29.994Z,93.33
2018-12-31T20:18:59.194Z,75.17
2018-12-31T20:21:28.368Z,68.57
2018-12-31T20:23:57.693Z,77.53
2018-12-31T20:26:26.715Z,84.50
2018-12-31T20:28:56.174Z,98.03
2018-12-31T20:31:25.642Z,99.03
2018-12-31T20:33:55.040Z,67.63
2018-12-31T20:36:24.514Z,207.17
2018-12-31T20:38:53.890Z,78.23
2018-12-31T20:41:23.691Z,68.23
2018-12-31T20:43:53.500Z,87.90
2018-12-31T20:46:23.133Z,270.70
2018-12-31T20:48:52.605Z,152.13
2018-12-31T20:51:22.226Z,86.20
2018-12-31T20:53:51.827Z,65.20
2018-12-31T20:56:21.330Z,58.57
2018-12-31T20:58:50.814Z,56.27
2018-12-31T21:01:20.196Z,53.40
2018-12-31T21:03:49.942Z,89.73
2018-12-31T21:06:19.216Z,83.03
2018-12-31T21:08:48.626Z,63.33
2018-12-31T21:11:18.000Z,83.07
2018-12-31T21:13:47.597Z,90.47
2018-12-31T21:16:17.170Z,72.53
2018-12-31T21:18:47.301Z,75.70
2018-12-31T21:21:16.802Z,55.33
2018-12-31T21:23:45.863Z,47.20
2018-12-31T21:26:14.959Z,44.47
2018-12-31T21:28:44.116Z,43.53
2018-12-31T21:31:13.077Z,61.10
2018-12-31T21:33:42.103Z,272.77
2018-12-31T21:36:11.158Z,55.50
2018-12-31T21:38:40.237Z,150.37
2018-12-31T21:41:09.293Z,128.20
2018-12-31T21:43:38.859Z,68.67
2018-12-31T21:46:08.107Z,69.93
2018-12-31T21:48:37.175Z,68.97
2018-12-31T21:51:06.438Z,67.60
2018-12-31T21:53:35.712Z,74.63
2018-12-31T21:56:04.752Z,60.73
2018-12-31T21:58:34.306Z,53.53
2018-12-31T22:01:03.401Z,51.90
2018-12-31T22:03:32.387Z,88.23
2018-12-31T22:06:01.539Z,69.83
2018-12-31T22:08:30.754Z,52.73
2018-12-31T22:10:59.794Z,62.85
2018-12-31T22:13:28.945Z,52.40
2018-12-31T22:15:58.022Z,59.83
2018-12-31T22:18:27.087Z,53.70
2018-12-31T22:20:56.182Z,97.70
2018-12-31T22:23:25.170Z,150.40
2018-12-31T22:25:54.383Z,61.37
2018-12-31T22:28:23.454Z,47.57
2018-12-31T22:30:52.500Z,42.27
2018-12-31T22:33:21.786Z,40.50
2018-12-31T22:35:51.537Z,59.80
2018-12-31T22:38:20.574Z,47.00
2018-12-31T22:40:56.401Z,48.10
2018-12-31T22:43:25.413Z,61.77
2018-12-31T22:45:55.294Z,96.23
2018-12-31T22:48:24.320Z,132.40
2018-12-31T22:50:53.570Z,69.73
2018-12-31T22:53:22.714Z,89.67
2018-12-31T22:55:51.790Z,104.50
2018-12-31T22:58:21.239Z,249.63
2018-12-31T23:00:50.472Z,403.55
2018-12-31T23:03:19.477Z,669.73
2018-12-31T23:05:48.755Z,395.43
2018-12-31T23:08:18.147Z,512.97
2018-12-31T23:10:47.295Z,459.13
2018-12-31T23:13:16.613Z,574.93
2018-12-31T23:15:47.439Z,566.30
2018-12-31T23:18:16.193Z,502.63
2018-12-31T23:20:49.259Z,650.07
2018-12-31T23:23:23.388Z,509.33
2018-12-31T23:25:53.977Z,583.77
2018-12-31T23:28:23.244Z,482.53
2018-12-31T23:30:52.815Z,518.30
2018-12-31T23:33:23.643Z,600.57
2018-12-31T23:35:52.717Z,397.57
2018-12-31T23:38:21.894Z,437.00
2018-12-31T23:40:51.101Z,419.30
2018-12-31T23:43:20.183Z,505.07
2018-12-31T23:45:50.718Z,306.93
2018-12-31T23:48:18.943Z,445.20
2018-12-31T23:50:48.008Z,230.50
2018-12-31T23:53:17.114Z,278.63
2018-12-31T23:55:46.238Z,241.17
2018-12-31T23:58:15.412Z,138.37
